createdAt,value
2023-04-27T00:00:47.747Z,1.20
2023-04-27T00:03:16.511Z,1.40
2023-04-27T00:05:45.087Z,1.10
2023-04-27T00:08:13.375Z,1.43
2023-04-27T00:10:43.178Z,1.87
2023-04-27T00:13:11.644Z,1.50
2023-04-27T00:15:40.017Z,1.27
2023-04-27T00:18:08.219Z,1.30
2023-04-27T00:20:36.506Z,1.40
2023-04-27T00:23:04.616Z,1.23
2023-04-27T00:25:32.818Z,1.20
2023-04-27T00:28:02.500Z,1.30
2023-04-27T00:30:30.736Z,1.60
2023-04-27T00:32:59.041Z,1.30
2023-04-27T00:35:27.605Z,1.30
2023-04-27T00:37:55.903Z,10.17
2023-04-27T00:40:24.162Z,32.63
2023-04-27T00:42:52.376Z,8.00
2023-04-27T00:45:22.111Z,30.97
2023-04-27T00:47:50.975Z,39.00
2023-04-27T00:50:26.561Z,15.40
2023-04-27T00:52:55.452Z,16.40
2023-04-27T00:55:24.047Z,6.17
2023-04-27T00:57:52.362Z,30.03
2023-04-27T01:00:22.481Z,3.80
2023-04-27T01:02:52.108Z,2.30
2023-04-27T01:05:20.531Z,1.40
2023-04-27T01:07:48.757Z,1.30
2023-04-27T01:10:17.094Z,1.40
2023-04-27T01:12:45.414Z,1.30
2023-04-27T01:15:13.827Z,1.10
2023-04-27T01:17:44.011Z,1.30
2023-04-27T01:20:13.057Z,1.33
2023-04-27T01:22:42.053Z,1.10
2023-04-27T01:25:12.946Z,1.20
2023-04-27T01:27:41.143Z,1.10
2023-04-27T01:30:09.845Z,1.20
2023-04-27T01:32:38.773Z,1.30
2023-04-27T01:35:07.778Z,1.20
2023-04-27T01:37:36.562Z,1.40
2023-04-27T01:40:06.767Z,1.40
2023-04-27T01:42:36.591Z,1.50
2023-04-27T01:45:05.755Z,1.33
2023-04-27T01:47:33.891Z,1.30
2023-04-27T01:50:02.005Z,1.07
2023-04-27T01:52:30.304Z,1.20
2023-04-27T01:54:58.474Z,1.73
2023-04-27T01:57:26.865Z,1.30
2023-04-27T01:59:57.157Z,1.17
2023-04-27T02:02:25.783Z,1.23
2023-04-27T02:04:54.044Z,1.50
2023-04-27T02:07:22.466Z,1.27
2023-04-27T02:09:50.554Z,1.73
2023-04-27T02:12:18.777Z,1.40
2023-04-27T02:14:47.444Z,1.20
2023-04-27T02:17:17.207Z,1.20
2023-04-27T02:19:45.319Z,1.50
2023-04-27T02:22:13.673Z,1.33
2023-04-27T02:24:42.056Z,1.33
2023-04-27T02:27:10.188Z,1.30
2023-04-27T02:29:39.233Z,1.20
2023-04-27T02:32:08.213Z,1.10
2023-04-27T02:34:37.717Z,1.10
2023-04-27T02:37:06.082Z,1.30
2023-04-27T02:39:34.233Z,1.10
2023-04-27T02:42:02.999Z,1.23
2023-04-27T02:44:31.320Z,1.07
2023-04-27T02:47:00.833Z,1.00
2023-04-27T02:49:29.251Z,0.90
2023-04-27T02:51:59.758Z,1.40
2023-04-27T02:54:28.162Z,1.07
2023-04-27T02:56:56.516Z,1.30
2023-04-27T02:59:24.824Z,1.10
2023-04-27T03:01:53.053Z,1.10
2023-04-27T03:04:21.703Z,1.00
2023-04-27T03:06:50.002Z,1.20
2023-04-27T03:09:19.544Z,1.50
2023-04-27T03:11:47.793Z,1.10
2023-04-27T03:14:16.610Z,1.20
2023-04-27T03:16:44.797Z,1.10
2023-04-27T03:19:13.091Z,1.10
2023-04-27T03:21:41.644Z,1.27
2023-04-27T03:24:09.906Z,0.90
2023-04-27T03:26:39.461Z,1.20
2023-04-27T03:29:07.892Z,1.00
2023-04-27T03:31:36.216Z,1.20
2023-04-27T03:34:04.537Z,1.30
2023-04-27T03:36:33.427Z,1.30
2023-04-27T03:39:01.669Z,1.47
2023-04-27T03:41:29.711Z,1.40
2023-04-27T03:43:59.595Z,1.30
2023-04-27T03:46:28.182Z,1.10
2023-04-27T03:48:56.552Z,1.27
2023-04-27T03:51:24.900Z,1.60
2023-04-27T03:53:53.316Z,1.47
2023-04-27T03:56:21.395Z,1.50
2023-04-27T03:58:49.801Z,1.20
2023-04-27T04:01:19.372Z,1.17
2023-04-27T04:03:48.292Z,1.10
2023-04-27T04:06:16.810Z,1.00
2023-04-27T04:08:44.957Z,0.83
2023-04-27T04:11:13.183Z,1.00
2023-04-27T04:13:42.340Z,0.80
2023-04-27T04:16:11.146Z,1.00
2023-04-27T04:18:40.713Z,1.07
2023-04-27T04:21:11.300Z,1.10
2023-04-27T04:23:41.303Z,0.90
2023-04-27T04:26:10.210Z,1.13
2023-04-27T04:28:38.462Z,1.07
2023-04-27T04:31:09.670Z,1.00
2023-04-27T04:33:38.272Z,1.47
2023-04-27T04:36:08.491Z,1.00
2023-04-27T04:38:36.798Z,1.00
2023-04-27T04:41:05.155Z,0.97
2023-04-27T04:43:33.459Z,0.97
2023-04-27T04:46:01.660Z,0.90
2023-04-27T04:48:30.421Z,1.00
2023-04-27T04:50:58.855Z,0.80
2023-04-27T04:53:28.527Z,1.50
2023-04-27T04:55:59.332Z,1.00
2023-04-27T04:58:27.432Z,0.97
2023-04-27T05:00:55.827Z,0.90
2023-04-27T05:03:24.760Z,2.43
2023-04-27T05:05:53.024Z,1.40
2023-04-27T05:08:21.198Z,1.07
2023-04-27T05:10:52.256Z,1.30
2023-04-27T05:13:20.569Z,1.10
2023-04-27T05:15:48.905Z,1.00
2023-04-27T05:18:17.432Z,0.90
2023-04-27T05:20:45.835Z,1.23
2023-04-27T05:23:14.012Z,0.90
2023-04-27T05:25:43.150Z,1.27
2023-04-27T05:28:12.802Z,1.27
2023-04-27T05:30:40.883Z,1.00
2023-04-27T05:33:09.366Z,0.90
2023-04-27T05:35:37.557Z,1.10
2023-04-27T05:38:05.936Z,0.73
2023-04-27T05:40:34.190Z,0.73
2023-04-27T05:43:05.714Z,1.00
2023-04-27T05:45:40.291Z,1.70
2023-04-27T05:48:08.455Z,0.97
2023-04-27T05:50:36.735Z,0.87
2023-04-27T05:53:05.983Z,0.90
2023-04-27T05:55:34.159Z,1.43
2023-04-27T05:58:08.585Z,0.80
2023-04-27T06:00:39.074Z,1.17
2023-04-27T06:03:07.368Z,0.97
2023-04-27T06:05:35.863Z,1.03
2023-04-27T06:08:04.217Z,1.13
2023-04-27T06:10:32.550Z,0.90
2023-04-27T06:13:00.701Z,1.00
2023-04-27T06:15:28.981Z,1.47
2023-04-27T06:17:58.624Z,0.90
2023-04-27T06:20:26.737Z,0.70
2023-04-27T06:22:55.070Z,1.03
2023-04-27T06:25:26.665Z,0.90
2023-04-27T06:27:55.680Z,0.80
2023-04-27T06:30:24.240Z,0.90
2023-04-27T06:32:53.092Z,0.70
2023-04-27T06:35:23.611Z,0.90
2023-04-27T06:37:52.809Z,0.70
2023-04-27T06:40:21.164Z,1.13
2023-04-27T06:42:49.489Z,0.80
2023-04-27T06:45:17.766Z,0.73
2023-04-27T06:47:45.900Z,1.00
2023-04-27T06:50:15.729Z,0.80
2023-04-27T06:52:45.901Z,1.00
2023-04-27T06:55:14.230Z,0.80
2023-04-27T06:57:42.449Z,0.93
2023-04-27T07:00:15.645Z,0.70
2023-04-27T07:02:44.190Z,0.90
2023-04-27T07:05:12.661Z,1.00
2023-04-27T07:07:40.811Z,0.87
2023-04-27T07:10:11.506Z,0.80
2023-04-27T07:12:41.711Z,0.70
2023-04-27T07:15:10.747Z,0.77
2023-04-27T07:17:39.025Z,0.90
2023-04-27T07:20:08.779Z,1.10
2023-04-27T07:22:37.548Z,0.90
2023-04-27T07:25:07.009Z,0.80
2023-04-27T07:27:36.920Z,0.80
2023-04-27T07:30:07.076Z,0.73
2023-04-27T07:32:35.573Z,0.50
2023-04-27T07:35:04.523Z,0.80
2023-04-27T07:37:32.613Z,0.90
2023-04-27T07:40:02.486Z,0.80
2023-04-27T07:42:30.843Z,0.83
2023-04-27T07:45:01.269Z,0.90
2023-04-27T07:47:29.554Z,0.97
2023-04-27T07:49:57.921Z,1.00
2023-04-27T07:52:26.631Z,1.03
2023-04-27T07:54:54.718Z,0.90
2023-04-27T07:57:23.261Z,0.70
2023-04-27T07:59:51.545Z,0.70
2023-04-27T08:02:21.631Z,0.70
2023-04-27T08:04:51.985Z,0.70
2023-04-27T08:07:21.603Z,0.77
2023-04-27T08:09:53.426Z,0.53
2023-04-27T08:12:23.783Z,0.60
2023-04-27T08:14:51.914Z,0.70
2023-04-27T08:17:22.302Z,0.70
2023-04-27T08:19:50.906Z,0.70
2023-04-27T08:22:20.346Z,0.70
2023-04-27T08:24:48.720Z,0.90
2023-04-27T08:27:17.000Z,0.70
2023-04-27T08:29:48.635Z,0.73
2023-04-27T08:32:17.424Z,0.77
2023-04-27T08:34:46.916Z,0.80
2023-04-27T08:37:15.155Z,0.60
2023-04-27T08:39:43.342Z,0.70
2023-04-27T08:42:15.840Z,3.23
2023-04-27T08:44:44.934Z,0.70
2023-04-27T08:47:13.588Z,0.63
2023-04-27T08:49:42.981Z,0.40
2023-04-27T08:52:16.969Z,0.90
2023-04-27T08:54:45.244Z,1.00
2023-04-27T08:57:14.547Z,0.50
2023-04-27T08:59:44.598Z,0.87
2023-04-27T09:02:21.518Z,0.90
2023-04-27T09:04:51.211Z,0.83
2023-04-27T09:07:20.995Z,0.50
2023-04-27T09:09:49.769Z,0.60
2023-04-27T09:12:19.703Z,0.53
2023-04-27T09:14:58.231Z,0.80
2023-04-27T09:17:27.976Z,0.50
2023-04-27T09:20:10.375Z,0.63
2023-04-27T09:22:46.227Z,0.80
2023-04-27T09:25:24.598Z,0.80
2023-04-27T09:27:53.277Z,0.60
2023-04-27T09:30:22.324Z,0.70
2023-04-27T09:32:53.008Z,0.60
2023-04-27T09:35:26.722Z,0.47
2023-04-27T09:37:56.940Z,0.60
2023-04-27T09:40:29.995Z,0.80
2023-04-27T09:43:01.309Z,0.77
2023-04-27T09:45:29.953Z,0.50
2023-04-27T09:47:59.857Z,0.80
2023-04-27T09:50:28.241Z,0.60
2023-04-27T09:52:58.320Z,0.50
2023-04-27T09:55:32.653Z,0.67
2023-04-27T09:58:29.971Z,0.60
2023-04-27T10:01:06.722Z,0.77
2023-04-27T10:03:45.343Z,0.40
2023-04-27T10:06:55.905Z,0.80
2023-04-27T10:09:28.064Z,0.53
2023-04-27T10:11:56.974Z,0.70
2023-04-27T10:14:26.536Z,0.40
2023-04-27T10:16:56.755Z,0.47
2023-04-27T10:19:26.225Z,0.87
2023-04-27T10:21:57.011Z,0.70
2023-04-27T10:24:40.134Z,0.90
2023-04-27T10:27:11.073Z,0.40
2023-04-27T10:29:42.153Z,0.50
2023-04-27T10:32:12.732Z,0.60
2023-04-27T10:34:42.783Z,0.33
2023-04-27T10:37:14.081Z,0.40
2023-04-27T10:39:49.399Z,0.30
2023-04-27T10:42:29.495Z,0.60
2023-04-27T10:45:00.085Z,0.47
2023-04-27T10:47:38.977Z,0.83
2023-04-27T10:50:09.272Z,0.43
2023-04-27T10:52:37.408Z,0.37
2023-04-27T10:55:17.517Z,0.40
2023-04-27T10:57:51.079Z,0.70
2023-04-27T11:00:25.790Z,0.50
2023-04-27T11:02:55.108Z,0.30
2023-04-27T11:05:24.914Z,0.33
2023-04-27T11:07:53.632Z,0.40
2023-04-27T11:10:23.472Z,0.37
2023-04-27T11:12:51.720Z,0.60
2023-04-27T11:15:20.058Z,0.40
2023-04-27T11:17:48.819Z,0.50
2023-04-27T11:20:26.659Z,0.43
2023-04-27T11:22:54.774Z,0.60
2023-04-27T11:25:30.539Z,0.30
2023-04-27T11:27:58.532Z,0.50
2023-04-27T11:30:26.775Z,0.30
2023-04-27T11:32:55.305Z,0.40
2023-04-27T11:35:34.630Z,0.63
2023-04-27T11:38:03.432Z,0.50
2023-04-27T11:40:35.956Z,0.50
2023-04-27T11:43:04.443Z,0.40
2023-04-27T11:45:32.762Z,0.30
2023-04-27T11:48:01.057Z,0.30
2023-04-27T11:50:29.575Z,0.63
2023-04-27T11:53:02.304Z,0.40
2023-04-27T11:55:37.451Z,0.50
2023-04-27T11:58:05.602Z,0.30
2023-04-27T12:00:34.100Z,0.50
2023-04-27T12:03:02.497Z,0.60
2023-04-27T12:05:31.101Z,0.30
2023-04-27T12:08:00.228Z,0.50
2023-04-27T12:10:28.757Z,0.27
2023-04-27T12:12:58.437Z,0.40
2023-04-27T12:15:27.140Z,1.00
2023-04-27T12:17:55.628Z,0.40
2023-04-27T12:20:23.992Z,0.30
2023-04-27T12:22:52.563Z,0.37
2023-04-27T12:25:21.514Z,0.50
2023-04-27T12:27:50.205Z,0.20
2023-04-27T12:30:20.452Z,0.60
2023-04-27T12:32:48.721Z,1.10
2023-04-27T12:35:16.938Z,0.60
2023-04-27T12:37:45.175Z,0.30
2023-04-27T12:40:14.630Z,0.53
2023-04-27T12:42:42.980Z,0.40
2023-04-27T12:45:11.823Z,0.30
2023-04-27T12:47:58.672Z,0.33
2023-04-27T12:50:32.577Z,0.40
2023-04-27T12:53:01.338Z,0.50
2023-04-27T12:55:33.713Z,0.83
2023-04-27T12:58:05.068Z,0.30
2023-04-27T13:00:34.316Z,0.33
2023-04-27T13:03:05.105Z,0.23
2023-04-27T13:05:34.036Z,0.53
2023-04-27T13:08:02.244Z,0.40
2023-04-27T13:10:30.632Z,0.53
2023-04-27T13:13:00.268Z,0.27
2023-04-27T13:15:29.021Z,0.37
2023-04-27T13:17:59.215Z,0.43
2023-04-27T13:20:29.229Z,0.83
2023-04-27T13:22:57.488Z,0.80
2023-04-27T13:25:27.983Z,0.73
2023-04-27T13:27:58.278Z,0.50
2023-04-27T13:30:26.638Z,0.40
2023-04-27T13:32:55.805Z,0.60
2023-04-27T13:35:28.563Z,0.97
2023-04-27T13:37:57.109Z,0.80
2023-04-27T13:40:25.424Z,0.40
2023-04-27T13:42:54.099Z,0.60
2023-04-27T13:45:22.652Z,0.77
2023-04-27T13:47:50.941Z,0.70
2023-04-27T13:50:19.211Z,1.30
2023-04-27T13:52:56.612Z,0.40
2023-04-27T13:55:24.814Z,0.30
2023-04-27T13:57:53.749Z,0.50
2023-04-27T14:00:22.271Z,0.60
2023-04-27T14:02:50.866Z,0.50
2023-04-27T14:05:25.735Z,0.33
2023-04-27T14:07:58.079Z,0.60
2023-04-27T14:10:26.564Z,0.40
2023-04-27T14:12:54.889Z,0.40
2023-04-27T14:15:23.185Z,0.30
2023-04-27T14:17:51.884Z,0.30
2023-04-27T14:20:19.980Z,0.40
2023-04-27T14:22:48.838Z,0.30
2023-04-27T14:25:18.704Z,0.57
2023-04-27T14:27:46.926Z,0.50
2023-04-27T14:30:15.706Z,0.50
2023-04-27T14:32:45.155Z,0.40
2023-04-27T14:35:13.470Z,0.43
2023-04-27T14:37:41.971Z,0.40
2023-04-27T14:40:11.628Z,0.43
2023-04-27T14:42:41.715Z,0.60
2023-04-27T14:45:10.881Z,0.30
2023-04-27T14:47:39.208Z,0.50
2023-04-27T14:50:08.504Z,0.40
2023-04-27T14:52:36.656Z,0.47
2023-04-27T14:55:05.051Z,0.40
2023-04-27T14:57:35.819Z,0.50
2023-04-27T15:00:10.187Z,0.30
2023-04-27T15:02:38.607Z,0.67
2023-04-27T15:05:07.637Z,0.50
2023-04-27T15:07:36.235Z,0.50
2023-04-27T15:10:04.472Z,0.70
2023-04-27T15:12:32.816Z,0.60
2023-04-27T15:15:01.392Z,0.60
2023-04-27T15:17:31.044Z,0.50
2023-04-27T15:19:59.830Z,0.90
2023-04-27T15:22:29.087Z,0.77
2023-04-27T15:24:57.206Z,0.70
2023-04-27T15:27:27.113Z,0.73
2023-04-27T15:29:56.174Z,1.00
2023-04-27T15:32:30.145Z,1.00
2023-04-27T15:35:01.091Z,0.80
2023-04-27T15:37:30.007Z,1.20
2023-04-27T15:39:59.002Z,0.80
2023-04-27T15:42:27.872Z,0.80
2023-04-27T15:44:56.551Z,0.50
2023-04-27T15:47:26.594Z,0.80
2023-04-27T15:49:57.955Z,0.90
2023-04-27T15:52:28.312Z,0.83
2023-04-27T15:54:57.388Z,0.83
2023-04-27T15:57:25.792Z,0.80
2023-04-27T15:59:53.891Z,1.10
2023-04-27T16:02:22.313Z,0.80
2023-04-27T16:04:51.015Z,0.83
2023-04-27T16:07:19.521Z,0.90
2023-04-27T16:09:49.222Z,0.90
2023-04-27T16:12:17.705Z,1.10
2023-04-27T16:14:45.946Z,0.87
2023-04-27T16:17:14.447Z,1.20
2023-04-27T16:19:42.567Z,1.00
2023-04-27T16:22:10.715Z,1.17
2023-04-27T16:24:39.083Z,1.20
2023-04-27T16:27:09.008Z,1.10
2023-04-27T16:29:37.158Z,1.83
2023-04-27T16:32:05.641Z,1.10
2023-04-27T16:34:33.910Z,1.37
2023-04-27T16:37:02.009Z,1.20
2023-04-27T16:39:30.585Z,1.17
2023-04-27T16:41:58.774Z,1.20
2023-04-27T16:44:28.496Z,1.30
2023-04-27T16:46:56.880Z,1.60
2023-04-27T16:49:25.554Z,1.47
2023-04-27T16:51:54.460Z,1.50
2023-04-27T16:54:22.673Z,1.33
2023-04-27T16:56:55.090Z,1.47
2023-04-27T16:59:23.749Z,1.63
2023-04-27T17:01:53.779Z,1.67
2023-04-27T17:04:22.138Z,2.10
2023-04-27T17:06:50.644Z,1.60
2023-04-27T17:09:19.821Z,1.97
2023-04-27T17:11:49.936Z,2.10
2023-04-27T17:14:19.967Z,1.70
2023-04-27T17:16:50.517Z,1.70
2023-04-27T17:19:20.619Z,2.30
2023-04-27T17:21:48.998Z,2.37
2023-04-27T17:24:17.252Z,1.90
2023-04-27T17:26:45.896Z,2.23
2023-04-27T17:29:15.980Z,2.10
2023-04-27T17:31:44.669Z,2.07
2023-04-27T17:34:15.357Z,2.17
2023-04-27T17:36:47.328Z,2.50
2023-04-27T17:39:17.459Z,2.50
2023-04-27T17:41:48.142Z,2.80
2023-04-27T17:44:18.898Z,2.90
2023-04-27T17:46:47.880Z,4.13
2023-04-27T17:49:18.911Z,1.63
2023-04-27T17:51:49.750Z,2.60
2023-04-27T17:54:18.012Z,2.47
2023-04-27T17:56:46.712Z,2.30
2023-04-27T17:59:17.743Z,1.70
2023-04-27T18:01:46.460Z,2.20
2023-04-27T18:04:14.730Z,2.73
2023-04-27T18:06:43.258Z,2.40
2023-04-27T18:09:16.332Z,2.50
2023-04-27T18:11:44.869Z,2.97
2023-04-27T18:14:13.605Z,3.00
2023-04-27T18:16:43.182Z,2.70
2023-04-27T18:19:15.826Z,2.73
2023-04-27T18:21:44.691Z,2.63
2023-04-27T18:24:17.316Z,3.10
2023-04-27T18:26:46.085Z,3.50
2023-04-27T18:29:14.968Z,2.87
2023-04-27T18:31:48.422Z,2.67
2023-04-27T18:34:16.761Z,2.63
2023-04-27T18:36:48.924Z,2.60
2023-04-27T18:39:20.700Z,3.87
2023-04-27T18:41:53.772Z,3.00
2023-04-27T18:44:22.225Z,3.63
2023-04-27T18:46:50.515Z,2.77
2023-04-27T18:49:18.804Z,2.33
2023-04-27T18:51:47.287Z,2.47
2023-04-27T18:54:15.428Z,2.90
2023-04-27T18:56:44.925Z,2.73
2023-04-27T18:59:13.342Z,2.80
2023-04-27T19:01:50.994Z,2.57
2023-04-27T19:04:26.131Z,2.67
2023-04-27T19:06:55.660Z,3.00
2023-04-27T19:09:24.399Z,3.10
2023-04-27T19:12:02.479Z,3.40
2023-04-27T19:14:32.266Z,3.30
2023-04-27T19:17:00.731Z,3.37
2023-04-27T19:19:29.076Z,3.30
2023-04-27T19:21:58.433Z,3.20
2023-04-27T19:24:26.888Z,3.90
2023-04-27T19:26:56.621Z,2.97
2023-04-27T19:29:26.617Z,3.50
2023-04-27T19:31:55.062Z,3.20
2023-04-27T19:34:23.429Z,3.23
2023-04-27T19:36:53.302Z,3.77
2023-04-27T19:39:22.953Z,3.43
2023-04-27T19:41:52.949Z,3.43
2023-04-27T19:44:27.394Z,3.73
2023-04-27T19:46:55.544Z,3.50
2023-04-27T19:49:23.808Z,3.47
2023-04-27T19:51:53.966Z,3.90
2023-04-27T19:54:22.466Z,4.10
2023-04-27T19:56:50.864Z,3.53
2023-04-27T19:59:19.265Z,3.47
2023-04-27T20:01:51.987Z,3.30
2023-04-27T20:04:21.189Z,3.43
2023-04-27T20:06:49.851Z,4.03
2023-04-27T20:09:20.703Z,3.73
2023-04-27T20:11:50.498Z,3.10
2023-04-27T20:14:18.992Z,3.60
2023-04-27T20:16:49.798Z,3.30
2023-04-27T20:19:19.449Z,3.63
2023-04-27T20:21:47.587Z,3.40
2023-04-27T20:24:18.922Z,4.23
2023-04-27T20:26:47.504Z,3.67
2023-04-27T20:29:19.161Z,3.30
2023-04-27T20:31:49.259Z,3.70
2023-04-27T20:34:17.722Z,3.80
2023-04-27T20:36:46.940Z,3.90
2023-04-27T20:39:15.968Z,4.37
2023-04-27T20:41:44.387Z,4.00
2023-04-27T20:44:13.248Z,4.37
2023-04-27T20:46:41.985Z,3.97
2023-04-27T20:49:12.264Z,3.30
2023-04-27T20:51:42.063Z,3.97
2023-04-27T20:54:10.429Z,4.00
2023-04-27T20:56:38.819Z,3.33
2023-04-27T20:59:08.024Z,3.63
2023-04-27T21:01:51.992Z,4.03
2023-04-27T21:04:27.622Z,3.90
2023-04-27T21:07:07.971Z,4.13
2023-04-27T21:09:38.645Z,3.63
2023-04-27T21:12:07.235Z,3.33
2023-04-27T21:14:35.654Z,3.77
2023-04-27T21:17:04.026Z,3.50
2023-04-27T21:19:33.660Z,3.53
2023-04-27T21:22:02.344Z,3.53
2023-04-27T21:24:30.685Z,3.40
2023-04-27T21:26:58.740Z,3.50
2023-04-27T21:29:28.041Z,3.23
2023-04-27T21:31:56.761Z,3.13
2023-04-27T21:34:24.831Z,4.37
2023-04-27T21:36:54.503Z,3.87
2023-04-27T21:39:22.830Z,3.70
2023-04-27T21:41:51.165Z,3.50
2023-04-27T21:44:19.345Z,3.70
2023-04-27T21:46:48.102Z,3.30
2023-04-27T21:49:18.843Z,3.63
2023-04-27T21:51:47.036Z,3.23
2023-04-27T21:54:17.219Z,3.70
2023-04-27T21:56:45.657Z,3.63
2023-04-27T21:59:13.890Z,4.00
2023-04-27T22:01:42.257Z,3.30
2023-04-27T22:04:10.657Z,3.57
2023-04-27T22:06:39.070Z,3.43
2023-04-27T22:09:08.220Z,3.60
2023-04-27T22:11:38.050Z,3.53
2023-04-27T22:14:06.551Z,3.83
2023-04-27T22:16:35.024Z,3.70
2023-04-27T22:19:03.261Z,3.40
2023-04-27T22:21:31.706Z,3.13
2023-04-27T22:24:02.159Z,3.13
2023-04-27T22:26:30.282Z,3.67
2023-04-27T22:29:00.121Z,3.10
2023-04-27T22:31:28.563Z,3.17
2023-04-27T22:33:57.162Z,3.43
2023-04-27T22:36:25.546Z,3.97
2023-04-27T22:38:53.867Z,3.80
2023-04-27T22:41:22.554Z,3.60
2023-04-27T22:43:50.975Z,3.00
2023-04-27T22:46:20.654Z,3.60
2023-04-27T22:48:50.518Z,3.73
2023-04-27T22:51:18.777Z,3.83
2023-04-27T22:53:47.466Z,3.70
2023-04-27T22:56:15.542Z,3.17
2023-04-27T22:58:43.772Z,3.17
2023-04-27T23:01:12.243Z,3.00
2023-04-27T23:03:42.150Z,3.20
2023-04-27T23:06:15.505Z,3.10
2023-04-27T23:08:47.027Z,3.07
2023-04-27T23:11:19.037Z,2.83
2023-04-27T23:13:48.176Z,2.50
2023-04-27T23:16:16.406Z,2.97
2023-04-27T23:18:46.101Z,3.13
2023-04-27T23:21:14.571Z,2.70
2023-04-27T23:23:43.004Z,2.60
2023-04-27T23:26:15.271Z,2.90
2023-04-27T23:28:44.335Z,2.60
2023-04-27T23:31:12.891Z,2.87
2023-04-27T23:33:41.378Z,2.50
2023-04-27T23:36:11.017Z,2.40
2023-04-27T23:38:39.267Z,3.00
2023-04-27T23:41:07.597Z,2.63
2023-04-27T23:43:36.143Z,2.80
2023-04-27T23:46:05.841Z,2.83
2023-04-27T23:48:35.019Z,2.57
2023-04-27T23:51:05.166Z,2.93
2023-04-27T23:53:35.055Z,2.50
2023-04-27T23:56:03.342Z,3.50
2023-04-27T23:58:31.598Z,3.00
